Time,TemperatureF,DewpointF,PressureIn,WindDirection,WindDirectionDegrees,WindSpeedMPH,WindSpeedGustMPH,Humidity,HourlyPrecipIn,Conditions,Clouds,dailyrainin,SolarRadiationWatts/m^2,SoftwareType,DateUTC
2013-01-08 00:02:00,14.0,9.0,30.14,West,260,4.0,6.0,80,-99.99,,,-99.99,0.000000,,2013-01-08 08:02:00,
2013-01-08 00:10:00,11.0,7.0,30.15,WSW,244,5.0,6.0,84,-99.99,,,-99.99,0.000000,,2013-01-08 08:10:00,
2013-01-08 00:52:00,11.0,7.0,30.15,WSW,244,5.0,6.0,84,-99.99,,,-99.99,0.000000,,2013-01-08 08:52:00,
2013-01-08 01:02:00,11.0,7.0,30.15,WSW,244,5.0,6.0,84,-99.99,,,-99.99,0.000000,,2013-01-08 09:02:00,
2013-01-08 01:10:00,12.0,8.0,30.16,West,259,3.0,4.0,84,-99.99,,,-99.99,0.000000,,2013-01-08 09:10:00,
2013-01-08 01:52:00,12.0,8.0,30.16,West,259,3.0,4.0,84,-99.99,,,-99.99,0.000000,,2013-01-08 09:52:00,
2013-01-08 02:02:00,12.0,8.0,30.16,West,259,3.0,4.0,84,-99.99,,,-99.99,0.000000,,2013-01-08 10:02:00,
2013-01-08 02:10:00,10.0,7.0,30.17,NW,312,0.0,2.0,88,-99.99,,,-99.99,0.000000,,2013-01-08 10:10:00,
2013-01-08 02:52:00,10.0,7.0,30.17,NW,312,0.0,2.0,88,-99.99,,,-99.99,0.000000,,2013-01-08 10:52:00,
2013-01-08 03:02:00,10.0,7.0,30.17,NW,312,0.0,2.0,88,-99.99,,,-99.99,0.000000,,2013-01-08 11:02:00,
2013-01-08 03:10:00,11.0,7.0,30.18,SW,227,3.0,5.0,84,-99.99,,,-99.99,0.000000,,2013-01-08 11:10:00,
2013-01-08 03:53:00,11.0,7.0,30.18,SW,227,3.0,5.0,84,-99.99,,,-99.99,0.000000,,2013-01-08 11:53:00,
2013-01-08 04:02:00,11.0,7.0,30.18,SW,227,3.0,5.0,84,-99.99,,,-99.99,0.000000,,2013-01-08 12:02:00,
2013-01-08 04:10:00,11.0,8.0,30.19,SSW,212,0.0,2.0,87,-99.99,,,-99.99,0.000000,,2013-01-08 12:10:00,
2013-01-08 04:53:00,11.0,8.0,30.19,SSW,212,0.0,2.0,87,-99.99,,,-99.99,0.000000,,2013-01-08 12:53:00,
2013-01-08 05:03:00,11.0,8.0,30.19,SSW,212,0.0,2.0,87,-99.99,,,-99.99,0.000000,,2013-01-08 13:03:00,
2013-01-08 05:10:00,8.0,5.0,30.19,SSW,196,5.0,6.0,87,-99.99,,,-99.99,0.000000,,2013-01-08 13:10:00,
2013-01-08 05:52:00,8.0,5.0,30.19,SSW,196,5.0,6.0,87,-99.99,,,-99.99,0.000000,,2013-01-08 13:52:00,
2013-01-08 06:02:00,8.0,5.0,30.19,SSW,196,5.0,6.0,87,-99.99,,,-99.99,0.000000,,2013-01-08 14:02:00,
2013-01-08 06:10:00,4.0,0.0,30.21,ESE,112,2.0,4.0,84,-99.99,,,-99.99,0.000000,,2013-01-08 14:10:00,
2013-01-08 06:53:00,4.0,0.0,30.21,ESE,112,2.0,4.0,84,-99.99,,,-99.99,0.000000,,2013-01-08 14:53:00,
2013-01-08 07:02:00,4.0,0.0,30.21,ESE,112,2.0,4.0,84,-99.99,,,-99.99,0.000000,,2013-01-08 15:02:00,
2013-01-08 07:10:00,6.0,3.0,30.22,WNW,286,4.0,6.0,89,-99.99,,,-99.99,10.000000,,2013-01-08 15:10:00,
2013-01-08 07:52:00,6.0,3.0,30.22,WNW,286,4.0,6.0,89,-99.99,,,-99.99,10.000000,,2013-01-08 15:52:00,
2013-01-08 08:03:00,6.0,3.0,30.22,WNW,286,4.0,6.0,89,-99.99,,,-99.99,10.000000,,2013-01-08 16:03:00,
2013-01-08 08:10:00,9.0,5.0,30.25,NW,320,2.0,3.0,83,-99.99,,,-99.99,150.000000,,2013-01-08 16:10:00,
2013-01-08 08:52:00,9.0,5.0,30.25,NW,320,2.0,3.0,83,-99.99,,,-99.99,150.000000,,2013-01-08 16:52:00,
2013-01-08 09:03:00,9.0,5.0,30.25,NW,320,2.0,3.0,83,-99.99,,,-99.99,150.000000,,2013-01-08 17:03:00,
2013-01-08 09:10:00,15.0,7.0,30.27,East,97,1.0,3.0,70,-99.99,,,-99.99,310.000000,,2013-01-08 17:10:00,
2013-01-08 09:53:00,15.0,7.0,30.27,East,97,1.0,3.0,70,-99.99,,,-99.99,310.000000,,2013-01-08 17:53:00,
2013-01-08 10:03:00,15.0,7.0,30.27,East,97,1.0,3.0,70,-99.99,,,-99.99,310.000000,,2013-01-08 18:03:00,
2013-01-08 10:10:00,20.0,11.0,30.27,West,273,0.0,2.0,66,-99.99,,,-99.99,410.000000,,2013-01-08 18:10:00,
2013-01-08 10:53:00,20.0,11.0,30.27,West,273,0.0,2.0,66,-99.99,,,-99.99,410.000000,,2013-01-08 18:53:00,
2013-01-08 11:03:00,20.0,11.0,30.27,West,273,0.0,2.0,66,-99.99,,,-99.99,410.000000,,2013-01-08 19:03:00,
2013-01-08 11:53:00,24.0,13.0,30.24,ENE,67,2.0,3.0,64,-99.99,,,-99.99,530.000000,,2013-01-08 19:53:00,
2013-01-08 12:02:00,24.0,13.0,30.24,ENE,67,2.0,3.0,64,-99.99,,,-99.99,530.000000,,2013-01-08 20:02:00,
2013-01-08 12:53:00,25.0,15.0,30.21,SE,135,4.0,6.0,65,-99.99,,,-99.99,480.000000,,2013-01-08 20:53:00,
2013-01-08 13:53:00,27.0,15.0,30.21,ESE,111,2.0,3.0,59,-99.99,,,-99.99,470.000000,,2013-01-08 21:53:00,
2013-01-08 14:52:00,31.0,18.0,30.22,WNW,282,1.0,3.0,57,-99.99,,,-99.99,340.000000,,2013-01-08 22:52:00,
2013-01-08 15:52:00,29.0,17.0,30.24,South,175,4.0,5.0,61,-99.99,,,-99.99,220.000000,,2013-01-08 23:52:00,
2013-01-08 16:52:00,19.0,13.0,30.26,West,265,7.0,8.0,79,-99.99,,,-99.99,20.000000,,2013-01-09 00:52:00,
2013-01-08 17:52:00,20.0,15.0,30.28,WSW,257,5.0,6.0,82,-99.99,,,-99.99,0.000000,,2013-01-09 01:52:00,
2013-01-08 18:10:00,18.0,14.0,30.30,SW,234,2.0,3.0,85,-99.99,,,-99.99,0.000000,,2013-01-09 02:10:00,
2013-01-08 18:52:00,18.0,14.0,30.30,SW,234,2.0,3.0,85,-99.99,,,-99.99,0.000000,,2013-01-09 02:52:00,
2013-01-08 19:03:00,18.0,14.0,30.30,SW,234,2.0,3.0,85,-99.99,,,-99.99,0.000000,,2013-01-09 03:03:00,
2013-01-08 19:10:00,19.0,15.0,30.32,WSW,254,3.0,3.0,83,-99.99,,,-99.99,0.000000,,2013-01-09 03:10:00,
2013-01-08 19:52:00,19.0,15.0,30.32,WSW,254,3.0,3.0,83,-99.99,,,-99.99,0.000000,,2013-01-09 03:52:00,
2013-01-08 20:02:00,19.0,15.0,30.32,WSW,254,3.0,3.0,83,-99.99,,,-99.99,0.000000,,2013-01-09 04:02:00,
2013-01-08 20:52:00,13.0,9.0,30.33,WSW,252,5.0,5.0,87,-99.99,,,-99.99,0.000000,,2013-01-09 04:52:00,
2013-01-08 21:03:00,13.0,9.0,30.33,WSW,252,5.0,5.0,87,-99.99,,,-99.99,0.000000,,2013-01-09 05:03:00,
2013-01-08 21:10:00,14.0,12.0,30.34,SW,217,5.0,6.0,90,-99.99,,,-99.99,0.000000,,2013-01-09 05:10:00,
2013-01-08 21:52:00,14.0,12.0,30.34,SW,217,5.0,6.0,90,-99.99,,,-99.99,0.000000,,2013-01-09 05:52:00,
2013-01-08 22:02:00,14.0,12.0,30.34,SW,217,5.0,6.0,90,-99.99,,,-99.99,0.000000,,2013-01-09 06:02:00,
2013-01-08 23:10:00,11.0,8.0,30.36,SW,220,3.0,4.0,88,-99.99,,,-99.99,0.000000,,2013-01-09 07:10:00,
2013-01-08 23:52:00,11.0,8.0,30.36,SW,220,3.0,4.0,88,-99.99,,,-99.99,0.000000,,2013-01-09 07:52:00,